Austintown, Ohio
Current Conditions -  °F | °C
As of 4:51 AM on Monday 20 Oct 2014 (Local Time) from KYNG Reporting Station
Overcast Overcast  
Wind Chill: 42°   Ceiling: 11000
Heat Index: 44°   Visibility: 10mi
Dew Point: 36°   Wind: 5mph
Humidity: 73%   Direction: 180°S
Pressure: 30"   Gusts: NA
Location:  41.1°N, 80.76°W
Report Text: KYNG 200851Z 18004KT 10SM OVC110 07/02 A3000 RMK AO2 SLP163 T00670022 58008
Loading
Personal Weather Stations






























Interactive Weather Map
Tropical Storm Tracking
New forecast layout! Learn more

10-Day Weather Forecast

Advertisements
Track Severe Weather on mobile